createdAt,value
2024-03-12T00:01:36.929Z,68.76
2024-03-12T00:04:05.239Z,68.91
2024-03-12T00:06:33.272Z,68.47
2024-03-12T00:09:01.118Z,68.94
2024-03-12T00:11:29.227Z,68.59
2024-03-12T00:13:57.556Z,68.89
2024-03-12T00:16:25.832Z,68.56
2024-03-12T00:18:56.516Z,69.10
2024-03-12T00:21:24.910Z,68.73
2024-03-12T00:23:53.776Z,69.76
2024-03-12T00:26:21.796Z,69.73
2024-03-12T00:28:49.877Z,68.77
2024-03-12T00:31:17.950Z,69.73
2024-03-12T00:33:48.790Z,69.66
2024-03-12T00:36:18.009Z,69.12
2024-03-12T00:38:47.996Z,69.48
2024-03-12T00:41:16.010Z,68.98
2024-03-12T00:43:44.266Z,69.75
2024-03-12T00:46:12.427Z,69.58
2024-03-12T00:48:40.707Z,70.25
2024-03-12T00:51:10.057Z,69.64
2024-03-12T00:53:38.156Z,69.39
2024-03-12T00:56:06.051Z,69.36
2024-03-12T00:58:35.199Z,69.17
2024-03-12T01:01:04.844Z,69.33
2024-03-12T01:03:33.178Z,69.96
2024-03-12T01:06:01.110Z,69.53
2024-03-12T01:08:30.123Z,69.99
2024-03-12T01:10:59.894Z,69.21
2024-03-12T01:13:29.198Z,69.76
2024-03-12T01:15:58.635Z,69.40
2024-03-12T01:18:26.786Z,69.51
2024-03-12T01:20:54.685Z,69.18
2024-03-12T01:23:22.888Z,69.70
2024-03-12T01:25:50.818Z,70.03
2024-03-12T01:28:19.144Z,69.17
2024-03-12T01:30:47.392Z,69.73
2024-03-12T01:33:15.553Z,69.67
2024-03-12T01:35:46.172Z,69.54
2024-03-12T01:38:15.182Z,69.87
2024-03-12T01:40:43.521Z,70.09
2024-03-12T01:43:14.120Z,69.78
2024-03-12T01:45:43.801Z,69.80
2024-03-12T01:48:12.855Z,70.38
2024-03-12T01:50:41.667Z,70.54
2024-03-12T01:53:10.927Z,69.93
2024-03-12T01:55:44.693Z,70.61
2024-03-12T01:58:17.712Z,70.36
2024-03-12T02:00:47.556Z,69.81
2024-03-12T02:03:20.530Z,70.11
2024-03-12T02:05:49.012Z,70.04
2024-03-12T02:08:18.441Z,70.48
2024-03-12T02:10:47.047Z,70.21
2024-03-12T02:13:15.728Z,70.04
2024-03-12T02:15:44.509Z,69.44
2024-03-12T02:18:13.087Z,70.05
2024-03-12T02:20:41.161Z,69.95
2024-03-12T02:23:09.377Z,70.53
2024-03-12T02:25:37.239Z,69.52
2024-03-12T02:28:05.852Z,70.28
2024-03-12T02:30:34.012Z,70.49
2024-03-12T02:33:04.226Z,70.90
2024-03-12T02:35:35.922Z,70.25
2024-03-12T02:38:04.288Z,70.62
2024-03-12T02:40:32.276Z,70.82
2024-03-12T02:43:00.441Z,70.52
2024-03-12T02:45:29.224Z,71.13
2024-03-12T02:47:57.393Z,70.76
2024-03-12T02:50:25.768Z,71.28
2024-03-12T02:52:53.725Z,70.70
2024-03-12T02:55:21.845Z,71.12
2024-03-12T02:57:49.877Z,71.16
2024-03-12T03:00:18.665Z,70.79
2024-03-12T03:02:49.903Z,70.67
2024-03-12T03:05:17.987Z,70.88
2024-03-12T03:07:46.229Z,71.66
2024-03-12T03:10:14.724Z,71.27
2024-03-12T03:12:43.509Z,71.26
2024-03-12T03:15:14.783Z,71.29
2024-03-12T03:17:44.123Z,72.08
2024-03-12T03:20:13.806Z,71.63
2024-03-12T03:22:44.776Z,72.04
2024-03-12T03:25:16.187Z,71.70
2024-03-12T03:27:44.603Z,71.63
2024-03-12T03:30:19.686Z,71.19
2024-03-12T03:32:49.456Z,71.98
2024-03-12T03:35:19.850Z,71.75
2024-03-12T03:37:47.973Z,71.28
2024-03-12T03:40:24.523Z,71.30
2024-03-12T03:42:54.397Z,71.91
2024-03-12T03:45:24.851Z,72.80
2024-03-12T03:47:52.833Z,72.08
2024-03-12T03:50:21.082Z,71.76
2024-03-12T03:52:49.271Z,72.10
2024-03-12T03:55:17.854Z,71.11
2024-03-12T03:57:46.465Z,71.89
2024-03-12T04:00:14.817Z,71.91
2024-03-12T04:02:45.832Z,71.93
2024-03-12T04:05:14.182Z,71.54
2024-03-12T04:07:42.487Z,71.36
2024-03-12T04:10:12.412Z,71.22
2024-03-12T04:12:44.064Z,71.56
2024-03-12T04:15:14.098Z,71.17
2024-03-12T04:17:44.966Z,72.02
2024-03-12T04:20:13.613Z,71.37
2024-03-12T04:22:44.789Z,71.47
2024-03-12T04:25:14.776Z,72.02
2024-03-12T04:27:43.080Z,71.58
2024-03-12T04:30:12.454Z,71.30
2024-03-12T04:32:41.830Z,71.06
2024-03-12T04:35:11.356Z,72.23
2024-03-12T04:37:40.105Z,71.77
2024-03-12T04:40:08.924Z,71.83
2024-03-12T04:42:38.605Z,71.90
2024-03-12T04:45:08.316Z,71.42
2024-03-12T04:47:39.014Z,72.64
2024-03-12T04:50:09.345Z,73.24
2024-03-12T04:52:37.650Z,72.49
2024-03-12T04:55:06.817Z,71.91
2024-03-12T04:57:37.180Z,72.19
2024-03-12T05:00:16.066Z,71.65
2024-03-12T05:02:48.390Z,72.49
2024-03-12T05:05:20.552Z,71.75
2024-03-12T05:07:49.359Z,71.46
2024-03-12T05:10:22.440Z,71.71
2024-03-12T05:12:53.667Z,72.41
2024-03-12T05:15:22.794Z,72.21
2024-03-12T05:17:51.135Z,72.00
2024-03-12T05:20:23.946Z,71.85
2024-03-12T05:22:52.315Z,72.26
2024-03-12T05:25:24.112Z,72.60
2024-03-12T05:27:52.596Z,72.04
2024-03-12T05:30:23.264Z,72.20
2024-03-12T05:32:54.909Z,72.15
2024-03-12T05:35:24.253Z,72.24
2024-03-12T05:38:13.114Z,72.23
2024-03-12T05:40:45.201Z,71.76
2024-03-12T05:43:33.161Z,71.76
2024-03-12T05:46:20.283Z,71.99
2024-03-12T05:48:51.901Z,72.26
2024-03-12T05:51:21.060Z,71.53
2024-03-12T05:53:49.876Z,71.42
2024-03-12T05:56:19.555Z,72.10
2024-03-12T05:58:48.578Z,71.45
2024-03-12T06:01:17.079Z,71.58
2024-03-12T06:03:45.788Z,71.92
2024-03-12T06:06:14.112Z,71.77
2024-03-12T06:08:42.422Z,71.96
2024-03-12T06:11:10.351Z,71.76
2024-03-12T06:13:39.567Z,72.01
2024-03-12T06:16:08.647Z,71.39
2024-03-12T06:18:37.170Z,71.79
2024-03-12T06:21:07.065Z,71.47
2024-03-12T06:23:36.753Z,71.45
2024-03-12T06:26:06.184Z,71.17
2024-03-12T06:28:35.807Z,71.66
2024-03-12T06:31:05.524Z,71.82
2024-03-12T06:33:34.655Z,71.74
2024-03-12T06:36:03.352Z,71.19
2024-03-12T06:38:31.604Z,70.39
2024-03-12T06:40:59.824Z,69.52
2024-03-12T06:43:28.112Z,68.83
2024-03-12T06:45:56.180Z,70.63
2024-03-12T06:48:24.148Z,70.72
2024-03-12T06:50:52.231Z,69.05
2024-03-12T06:53:21.197Z,69.17
2024-03-12T06:55:49.061Z,68.83
2024-03-12T06:58:20.537Z,69.25
2024-03-12T07:00:52.038Z,69.25
2024-03-12T07:03:23.394Z,69.76
2024-03-12T07:05:54.102Z,70.01
2024-03-12T07:08:26.548Z,68.92
2024-03-12T07:10:56.549Z,68.59
2024-03-12T07:13:27.249Z,66.98
2024-03-12T07:15:55.589Z,68.19
2024-03-12T07:18:24.724Z,69.21
2024-03-12T07:20:56.477Z,69.37
2024-03-12T07:23:24.722Z,69.13
2024-03-12T07:25:52.971Z,69.92
2024-03-12T07:28:24.732Z,68.68
2024-03-12T07:30:53.620Z,67.52
2024-03-12T07:33:22.076Z,66.11
2024-03-12T07:35:50.220Z,65.00
2024-03-12T07:38:19.043Z,65.45
2024-03-12T07:40:47.200Z,64.56
2024-03-12T07:43:15.497Z,64.50
2024-03-12T07:45:47.668Z,63.99
2024-03-12T07:48:15.781Z,64.87
2024-03-12T07:50:44.868Z,64.32
2024-03-12T07:53:13.709Z,63.65
2024-03-12T07:55:44.743Z,64.13
2024-03-12T07:58:13.702Z,63.93
2024-03-12T08:00:42.293Z,63.09
2024-03-12T08:03:12.887Z,63.32
2024-03-12T08:05:41.480Z,64.15
2024-03-12T08:08:09.561Z,63.78
2024-03-12T08:10:37.664Z,63.44
2024-03-12T08:13:09.393Z,62.45
2024-03-12T08:15:38.494Z,62.70
2024-03-12T08:18:13.475Z,63.94
2024-03-12T08:20:48.516Z,63.76
2024-03-12T08:23:16.576Z,63.29
2024-03-12T08:25:55.643Z,62.64
2024-03-12T08:28:27.951Z,63.58
2024-03-12T08:31:00.073Z,62.75
2024-03-12T08:33:33.302Z,62.03
2024-03-12T08:36:02.449Z,62.02
2024-03-12T08:38:30.312Z,61.89
2024-03-12T08:40:58.458Z,61.87
2024-03-12T08:43:26.465Z,62.55
2024-03-12T08:45:54.471Z,61.87
2024-03-12T08:48:22.919Z,60.94
2024-03-12T08:50:51.009Z,61.80
2024-03-12T08:53:19.107Z,61.28
2024-03-12T08:55:47.068Z,59.39
2024-03-12T08:58:15.334Z,59.17
2024-03-12T09:00:43.732Z,59.67
2024-03-12T09:03:12.066Z,59.84
2024-03-12T09:05:41.690Z,59.52
2024-03-12T09:08:10.763Z,58.75
2024-03-12T09:10:39.079Z,57.86
2024-03-12T09:13:07.150Z,59.08
2024-03-12T09:15:35.897Z,57.91
2024-03-12T09:18:07.693Z,58.31
2024-03-12T09:20:37.907Z,57.91
2024-03-12T09:23:06.375Z,57.63
2024-03-12T09:25:34.653Z,57.41
2024-03-12T09:28:06.085Z,57.71
2024-03-12T09:30:35.761Z,57.48
2024-03-12T09:33:05.374Z,57.49
2024-03-12T09:35:33.828Z,56.63
2024-03-12T09:38:02.196Z,57.13
2024-03-12T09:40:31.095Z,57.46
2024-03-12T09:43:01.488Z,56.42
2024-03-12T09:45:30.616Z,56.25
2024-03-12T09:47:58.611Z,56.76
2024-03-12T09:50:30.495Z,55.85
2024-03-12T09:53:00.796Z,55.43
2024-03-12T09:55:29.940Z,56.05
2024-03-12T09:57:57.908Z,55.56
2024-03-12T10:00:29.586Z,54.91
2024-03-12T10:03:00.847Z,54.42
2024-03-12T10:05:33.332Z,55.09
2024-03-12T10:08:15.978Z,55.74
2024-03-12T10:10:46.216Z,54.43
2024-03-12T10:13:16.199Z,54.55
2024-03-12T10:15:58.138Z,54.17
2024-03-12T10:18:28.339Z,54.50
2024-03-12T10:21:02.552Z,54.60
2024-03-12T10:23:37.142Z,54.99
2024-03-12T10:26:17.419Z,55.37
2024-03-12T10:28:47.051Z,54.95
2024-03-12T10:31:16.044Z,54.51
2024-03-12T10:33:49.534Z,54.74
2024-03-12T10:36:32.543Z,53.80
2024-03-12T10:39:00.844Z,54.15
2024-03-12T10:41:29.737Z,54.34
2024-03-12T10:44:08.924Z,54.41
2024-03-12T10:46:40.269Z,53.73
2024-03-12T10:49:14.134Z,54.94
2024-03-12T10:51:44.352Z,54.20
2024-03-12T10:54:18.024Z,54.27
2024-03-12T10:56:51.310Z,54.44
2024-03-12T10:59:21.163Z,53.80
2024-03-12T11:01:49.645Z,54.49
2024-03-12T11:04:19.067Z,54.22
2024-03-12T11:06:49.411Z,53.93
2024-03-12T11:09:23.382Z,53.31
2024-03-12T11:11:51.703Z,53.43
2024-03-12T11:14:20.326Z,52.81
2024-03-12T11:16:48.332Z,53.39
2024-03-12T11:19:20.827Z,52.52
2024-03-12T11:21:50.768Z,52.29
2024-03-12T11:24:46.021Z,52.02
2024-03-12T11:27:20.629Z,51.74
2024-03-12T11:30:15.754Z,50.74
2024-03-12T11:32:51.561Z,50.80
2024-03-12T11:35:19.484Z,50.84
2024-03-12T11:38:11.452Z,50.90
2024-03-12T11:40:48.921Z,50.81
2024-03-12T11:43:46.162Z,49.84
2024-03-12T11:46:40.884Z,50.12
2024-03-12T11:49:34.878Z,49.41
2024-03-12T11:52:02.872Z,49.10
2024-03-12T11:54:41.142Z,49.01
2024-03-12T11:57:31.186Z,48.72
2024-03-12T12:00:00.460Z,48.64
2024-03-12T12:02:28.626Z,48.57
2024-03-12T12:04:59.211Z,48.40
2024-03-12T12:07:29.136Z,47.03
2024-03-12T12:09:57.373Z,46.14
2024-03-12T12:12:28.146Z,45.27
2024-03-12T12:14:56.237Z,46.82
2024-03-12T12:17:25.894Z,46.05
2024-03-12T12:20:17.438Z,45.27
2024-03-12T12:22:51.382Z,43.51
2024-03-12T12:25:20.681Z,44.33
2024-03-12T12:27:49.183Z,44.02
2024-03-12T12:30:21.898Z,43.30
2024-03-12T12:32:52.918Z,43.67
2024-03-12T12:35:22.161Z,42.47
2024-03-12T12:37:51.867Z,42.82
2024-03-12T12:40:22.344Z,42.58
2024-03-12T12:42:52.024Z,43.43
2024-03-12T12:45:20.545Z,43.13
2024-03-12T12:47:50.468Z,42.36
2024-03-12T12:50:28.144Z,43.14
2024-03-12T12:53:02.207Z,43.76
2024-03-12T12:55:33.532Z,43.01
2024-03-12T12:58:03.783Z,43.30
2024-03-12T13:00:45.495Z,43.70
2024-03-12T13:03:18.921Z,43.24
2024-03-12T13:05:48.143Z,42.86
2024-03-12T13:08:30.969Z,42.51
2024-03-12T13:11:06.178Z,42.79
2024-03-12T13:13:36.462Z,43.75
2024-03-12T13:16:26.967Z,43.87
2024-03-12T13:18:59.995Z,44.39
2024-03-12T13:21:28.704Z,43.72
2024-03-12T13:23:56.957Z,42.98
2024-03-12T13:26:24.859Z,41.87
2024-03-12T13:28:55.425Z,41.81
2024-03-12T13:31:24.384Z,41.65
2024-03-12T13:33:55.074Z,41.02
2024-03-12T13:36:26.300Z,41.73
2024-03-12T13:38:55.010Z,40.45
2024-03-12T13:41:26.356Z,41.16
2024-03-12T13:43:56.340Z,41.55
2024-03-12T13:46:24.334Z,41.87
2024-03-12T13:48:59.082Z,41.74
2024-03-12T13:51:27.020Z,42.22
2024-03-12T13:53:55.893Z,41.94
2024-03-12T13:56:23.734Z,41.63
2024-03-12T13:58:53.415Z,41.89
2024-03-12T14:01:21.992Z,41.44
2024-03-12T14:03:53.063Z,41.59
2024-03-12T14:06:21.209Z,41.81
2024-03-12T14:08:50.917Z,42.36
2024-03-12T14:11:19.304Z,41.95
2024-03-12T14:13:51.113Z,41.97
2024-03-12T14:16:23.401Z,42.08
2024-03-12T14:18:53.646Z,42.40
2024-03-12T14:21:22.489Z,42.57
2024-03-12T14:23:51.294Z,42.50
2024-03-12T14:26:20.246Z,41.62
2024-03-12T14:28:48.298Z,41.66
2024-03-12T14:31:16.288Z,41.80
2024-03-12T14:33:44.717Z,41.38
2024-03-12T14:36:12.646Z,41.08
2024-03-12T14:38:41.282Z,41.31
2024-03-12T14:41:09.328Z,41.80
2024-03-12T14:43:37.407Z,42.32
2024-03-12T14:46:06.194Z,42.47
2024-03-12T14:48:35.513Z,43.98
2024-03-12T14:51:03.711Z,45.22
2024-03-12T14:53:31.956Z,45.24
2024-03-12T14:56:02.719Z,45.29
2024-03-12T14:58:31.505Z,44.98
2024-03-12T15:00:59.533Z,44.87
2024-03-12T15:03:27.867Z,44.58
2024-03-12T15:05:56.784Z,44.69
2024-03-12T15:08:25.053Z,44.44
2024-03-12T15:10:53.172Z,44.21
2024-03-12T15:13:21.885Z,43.20
2024-03-12T15:15:51.059Z,43.47
2024-03-12T15:18:21.416Z,43.06
2024-03-12T15:20:49.781Z,43.11
2024-03-12T15:23:17.729Z,43.17
2024-03-12T15:25:45.848Z,43.53
2024-03-12T15:28:13.935Z,43.80
2024-03-12T15:30:43.840Z,42.93
2024-03-12T15:33:13.615Z,43.47
2024-03-12T15:35:42.531Z,44.55
2024-03-12T15:38:10.793Z,43.70
2024-03-12T15:40:38.694Z,44.28
2024-03-12T15:43:07.010Z,44.03
2024-03-12T15:45:35.988Z,44.53
2024-03-12T15:48:09.230Z,44.52
2024-03-12T15:50:39.424Z,45.27
2024-03-12T15:53:07.772Z,45.30
2024-03-12T15:55:36.762Z,44.66
2024-03-12T15:58:05.249Z,45.08
2024-03-12T16:00:35.294Z,45.43
2024-03-12T16:03:04.353Z,45.52
2024-03-12T16:05:32.305Z,46.16
2024-03-12T16:08:04.509Z,45.55
2024-03-12T16:10:33.603Z,45.53
2024-03-12T16:13:06.505Z,45.66
2024-03-12T16:15:34.803Z,46.62
2024-03-12T16:18:04.032Z,46.14
2024-03-12T16:20:31.935Z,46.46
2024-03-12T16:22:59.868Z,45.94
2024-03-12T16:25:27.835Z,46.42
2024-03-12T16:27:55.883Z,46.96
2024-03-12T16:30:23.785Z,46.66
2024-03-12T16:32:51.738Z,47.36
2024-03-12T16:35:19.692Z,47.38
2024-03-12T16:37:47.656Z,48.07
2024-03-12T16:40:16.192Z,48.00
2024-03-12T16:42:44.602Z,48.39
2024-03-12T16:45:13.516Z,48.89
2024-03-12T16:47:43.890Z,48.49
2024-03-12T16:50:16.045Z,48.37
2024-03-12T16:52:44.769Z,48.81
2024-03-12T16:55:13.370Z,48.95
2024-03-12T16:57:42.078Z,48.09
2024-03-12T17:00:15.763Z,48.44
2024-03-12T17:02:44.553Z,49.15
2024-03-12T17:05:18.098Z,48.34
2024-03-12T17:07:53.117Z,48.58
2024-03-12T17:10:23.461Z,48.69
2024-03-12T17:12:52.565Z,49.10
2024-03-12T17:15:21.965Z,48.81
2024-03-12T17:17:50.734Z,49.12
2024-03-12T17:20:18.739Z,48.99
2024-03-12T17:22:48.049Z,50.10
2024-03-12T17:25:20.018Z,49.76
2024-03-12T17:27:50.208Z,49.78
2024-03-12T17:30:18.330Z,49.60
2024-03-12T17:32:47.789Z,49.08
2024-03-12T17:35:16.688Z,49.03
2024-03-12T17:37:47.982Z,49.26
2024-03-12T17:40:16.394Z,48.77
2024-03-12T17:42:46.357Z,49.58
2024-03-12T17:45:16.421Z,49.19
2024-03-12T17:47:50.831Z,49.24
2024-03-12T17:50:21.956Z,49.72
2024-03-12T17:52:52.504Z,49.82
2024-03-12T17:55:22.833Z,50.35
2024-03-12T17:57:52.274Z,49.83
2024-03-12T18:00:22.399Z,50.77
2024-03-12T18:02:51.323Z,50.88
2024-03-12T18:05:23.331Z,50.88
2024-03-12T18:07:54.602Z,50.51
2024-03-12T18:10:27.038Z,50.68
2024-03-12T18:12:55.475Z,50.64
2024-03-12T18:15:25.130Z,50.74
2024-03-12T18:17:54.158Z,51.09
2024-03-12T18:20:31.441Z,51.58
2024-03-12T18:22:59.823Z,51.87
2024-03-12T18:25:28.102Z,52.04
2024-03-12T18:27:57.518Z,52.02
2024-03-12T18:30:26.773Z,51.50
2024-03-12T18:32:55.527Z,52.04
2024-03-12T18:35:25.196Z,52.68
2024-03-12T18:37:53.243Z,52.24
2024-03-12T18:40:23.682Z,52.59
2024-03-12T18:42:52.523Z,52.59
2024-03-12T18:45:24.113Z,52.64
2024-03-12T18:47:54.524Z,52.19
2024-03-12T18:50:25.985Z,53.24
2024-03-12T18:52:54.170Z,53.52
2024-03-12T18:55:23.341Z,53.58
2024-03-12T18:57:52.073Z,53.86
2024-03-12T19:00:21.104Z,54.05
2024-03-12T19:02:52.036Z,54.19
2024-03-12T19:05:23.555Z,53.91
2024-03-12T19:07:52.763Z,54.74
2024-03-12T19:10:21.822Z,53.91
2024-03-12T19:12:50.535Z,53.71
2024-03-12T19:15:22.880Z,54.54
2024-03-12T19:17:52.184Z,54.20
2024-03-12T19:20:22.461Z,54.19
2024-03-12T19:22:51.958Z,55.01
2024-03-12T19:25:20.806Z,54.82
2024-03-12T19:27:51.344Z,54.62
2024-03-12T19:30:20.504Z,54.72
2024-03-12T19:32:51.499Z,55.39
2024-03-12T19:35:20.668Z,54.98
2024-03-12T19:37:49.728Z,55.39
2024-03-12T19:40:18.378Z,54.61
2024-03-12T19:42:49.915Z,55.04
2024-03-12T19:45:25.014Z,55.04
2024-03-12T19:47:53.700Z,55.95
2024-03-12T19:50:25.771Z,55.54
2024-03-12T19:52:56.050Z,55.79
2024-03-12T19:55:30.681Z,56.16
2024-03-12T19:58:01.573Z,55.90
2024-03-12T20:00:36.480Z,56.16
2024-03-12T20:03:06.512Z,56.60
2024-03-12T20:05:37.178Z,55.78
2024-03-12T20:08:09.938Z,56.30
2024-03-12T20:10:38.518Z,56.58
2024-03-12T20:13:06.981Z,56.44
2024-03-12T20:15:37.997Z,55.83
2024-03-12T20:18:07.601Z,56.90
2024-03-12T20:20:36.895Z,57.01
2024-03-12T20:23:06.940Z,57.68
2024-03-12T20:25:35.642Z,57.04
2024-03-12T20:28:10.524Z,57.17
2024-03-12T20:30:40.646Z,57.85
2024-03-12T20:33:09.995Z,58.07
2024-03-12T20:35:44.544Z,58.53
2024-03-12T20:38:15.096Z,58.32
2024-03-12T20:40:44.215Z,58.62
2024-03-12T20:43:12.814Z,57.98
2024-03-12T20:45:41.080Z,58.34
2024-03-12T20:48:12.398Z,59.20
2024-03-12T20:50:41.257Z,58.87
2024-03-12T20:53:11.319Z,59.14
2024-03-12T20:55:40.452Z,58.96
2024-03-12T20:58:08.653Z,58.65
2024-03-12T21:00:39.116Z,59.14
2024-03-12T21:03:10.591Z,59.41
2024-03-12T21:05:40.180Z,59.88
2024-03-12T21:08:08.453Z,59.83
2024-03-12T21:10:38.997Z,59.64
2024-03-12T21:13:07.148Z,59.24
2024-03-12T21:15:36.224Z,60.25
2024-03-12T21:18:07.123Z,59.96
2024-03-12T21:20:35.543Z,59.89
2024-03-12T21:23:09.568Z,59.33
2024-03-12T21:25:37.890Z,60.21
2024-03-12T21:28:06.966Z,60.11
2024-03-12T21:30:36.116Z,60.25
2024-03-12T21:33:04.885Z,60.04
2024-03-12T21:35:33.212Z,59.91
2024-03-12T21:38:01.108Z,59.29
2024-03-12T21:40:30.701Z,59.58
2024-03-12T21:42:58.729Z,59.76
2024-03-12T21:45:27.052Z,60.14
2024-03-12T21:47:55.590Z,59.88
2024-03-12T21:50:23.859Z,59.79
2024-03-12T21:52:52.032Z,59.54
2024-03-12T21:55:21.056Z,60.31
2024-03-12T21:57:49.965Z,59.72
2024-03-12T22:00:25.457Z,59.58
2024-03-12T22:02:53.636Z,59.98
2024-03-12T22:05:21.754Z,60.31
2024-03-12T22:07:50.422Z,60.14
2024-03-12T22:10:19.114Z,60.05
2024-03-12T22:12:47.979Z,59.90
2024-03-12T22:15:16.597Z,60.23
2024-03-12T22:17:49.405Z,59.83
2024-03-12T22:20:20.119Z,59.92
2024-03-12T22:22:49.357Z,60.46
2024-03-12T22:25:19.292Z,60.47
2024-03-12T22:27:49.232Z,60.63
2024-03-12T22:30:18.261Z,61.26
2024-03-12T22:32:48.081Z,60.29
2024-03-12T22:35:17.100Z,60.81
2024-03-12T22:37:48.480Z,60.30
2024-03-12T22:40:18.165Z,61.02
2024-03-12T22:42:46.794Z,60.48
2024-03-12T22:45:16.201Z,61.29
2024-03-12T22:47:44.598Z,61.83
2024-03-12T22:50:13.484Z,60.97
2024-03-12T22:52:41.670Z,61.65
2024-03-12T22:55:10.399Z,61.79
2024-03-12T22:57:39.904Z,61.84
2024-03-12T23:00:41.125Z,61.13
2024-03-12T23:03:14.079Z,61.47
2024-03-12T23:05:42.560Z,61.30
2024-03-12T23:08:15.790Z,61.27
2024-03-12T23:10:45.338Z,61.15
2024-03-12T23:13:16.910Z,60.74
2024-03-12T23:15:45.084Z,61.31
2024-03-12T23:18:13.434Z,62.19
2024-03-12T23:20:42.042Z,61.47
2024-03-12T23:23:10.027Z,61.23
2024-03-12T23:25:41.389Z,61.57
2024-03-12T23:28:12.026Z,62.21
2024-03-12T23:30:41.006Z,62.09
2024-03-12T23:33:09.665Z,61.43
2024-03-12T23:35:37.874Z,61.88
2024-03-12T23:38:06.544Z,61.88
2024-03-12T23:40:35.146Z,61.00
2024-03-12T23:43:03.275Z,61.91
2024-03-12T23:45:32.261Z,61.16
2024-03-12T23:48:03.462Z,61.69
2024-03-12T23:50:31.881Z,61.82
2024-03-12T23:53:00.206Z,61.10
2024-03-12T23:55:28.305Z,61.66
2024-03-12T23:57:56.552Z,60.94
